Time;durP1;ratioP1;P1;durP2;ratioP2;P2;SDS_P1;SDS_P2;PMS_P1;PMS_P2;Temp;Humidity;BMP_temperature;BMP_pressure;BME280_temperature;BME280_humidity;BME280_pressure;Samples;Min_cycle;Max_cycle;Signal;HPM_P1;HPM_P2
2021/04/06 00:01:36;;;;;;;9.65;3.30;;;;;;;1.66;63.46;99067.25;122445;1152;22537;-76
2021/04/06 00:04:08;;;;;;;8.28;3.88;;;;;;;1.66;63.69;99069.86;122226;1152;23463;-77
2021/04/06 00:06:41;;;;;;;10.78;4.55;;;;;;;1.68;63.44;99073.15;122400;1152;25403;-77
2021/04/06 00:09:15;;;;;;;10.28;3.65;;;;;;;1.65;63.42;99073.43;122436;1152;24680;-76
2021/04/06 00:11:46;;;;;;;7.73;3.20;;;;;;;1.62;63.48;99074.52;122283;1152;22591;-76
2021/04/06 00:14:17;;;;;;;9.30;3.67;;;;;;;1.58;63.33;99083.59;122629;1152;22541;-76
2021/04/06 00:16:47;;;;;;;13.85;4.40;;;;;;;1.57;63.59;99079.36;122390;1152;23677;-75
2021/04/06 00:19:22;;;;;;;7.07;3.23;;;;;;;1.55;63.61;99089.08;122274;1152;22539;-76
2021/04/06 00:21:56;;;;;;;10.25;3.63;;;;;;;1.54;63.45;99073.61;122375;1153;24444;-76
2021/04/06 00:24:29;;;;;;;7.30;2.98;;;;;;;1.48;63.66;99082.80;122400;1152;24660;-77
2021/04/06 00:27:10;;;;;;;6.28;3.10;;;;;;;1.48;63.71;99088.00;122287;1152;22652;-76
2021/04/06 00:29:42;;;;;;;9.40;3.40;;;;;;;1.47;63.67;99088.16;122384;1152;22621;-76
2021/04/06 00:32:16;;;;;;;8.88;3.63;;;;;;;1.44;63.88;99096.23;122354;1153;22536;-76
2021/04/06 00:34:46;;;;;;;10.00;4.23;;;;;;;1.44;63.94;99088.44;122370;1152;24671;-77
2021/04/06 00:37:16;;;;;;;10.05;3.03;;;;;;;1.44;63.97;99097.05;122587;1152;24680;-77
2021/04/06 00:40:17;;;;;;;8.13;2.95;;;;;;;1.44;64.04;99096.23;122289;1151;22534;-78
2021/04/06 00:42:47;;;;;;;5.58;3.35;;;;;;;1.39;64.26;99102.66;122069;1155;25458;-76
2021/04/06 00:45:22;;;;;;;9.93;3.10;;;;;;;1.40;64.16;99101.72;122186;1155;24702;-78
2021/04/06 00:48:09;;;;;;;7.10;3.00;;;;;;;1.41;64.22;99105.95;121945;1154;22548;-77
2021/04/06 00:50:39;;;;;;;7.23;2.73;;;;;;;1.39;64.36;99115.67;121792;1155;25023;-75
2021/04/06 00:53:11;;;;;;;5.50;2.58;;;;;;;1.38;64.12;99110.63;122164;1154;25202;-76
2021/04/06 00:55:41;;;;;;;6.03;2.83;;;;;;;1.37;64.16;99120.21;121822;1157;24703;-76
2021/04/06 00:58:15;;;;;;;10.33;3.53;;;;;;;1.39;64.20;99126.08;121998;1155;22626;-76
2021/04/06 01:00:45;;;;;;;13.85;3.08;;;;;;;1.39;64.14;99128.68;121948;1152;22700;-77
2021/04/06 01:03:17;;;;;;;7.55;3.05;;;;;;;1.40;64.06;99135.55;122617;1152;22534;-77
2021/04/06 01:06:01;;;;;;;9.75;3.43;;;;;;;1.43;64.40;99136.21;122332;1152;22536;-76
2021/04/06 01:08:38;;;;;;;9.33;2.63;;;;;;;1.42;64.20;99138.00;122553;1152;25416;-77
2021/04/06 01:11:09;;;;;;;9.45;3.35;;;;;;;1.43;64.10;99136.21;122289;1152;22836;-76
2021/04/06 01:13:38;;;;;;;9.13;2.80;;;;;;;1.38;63.95;99140.06;122317;1152;22621;-76
2021/04/06 01:16:07;;;;;;;7.40;2.58;;;;;;;1.36;63.97;99136.77;122280;1153;23072;-77
2021/04/06 01:18:36;;;;;;;10.17;3.60;;;;;;;1.37;64.34;99143.63;122249;1152;22539;-77
2021/04/06 01:21:10;;;;;;;6.78;2.50;;;;;;;1.36;63.99;99135.95;122322;1153;22528;-76
2021/04/06 01:23:42;;;;;;;8.83;2.75;;;;;;;1.35;64.06;99142.12;122138;1155;22619;-76
2021/04/06 01:26:12;;;;;;;9.43;3.18;;;;;;;1.35;63.91;99152.53;122189;1155;22562;-77
2021/04/06 01:28:41;;;;;;;7.68;2.58;;;;;;;1.34;64.04;99149.11;122167;1155;22771;-77
2021/04/06 01:31:11;;;;;;;8.98;2.90;;;;;;;1.32;63.93;99151.02;121815;1155;22883;-76
2021/04/06 01:33:46;;;;;;;5.80;2.90;;;;;;;1.30;63.85;99147.75;122122;1155;22626;-77
2021/04/06 01:36:15;;;;;;;6.55;2.85;;;;;;;1.30;63.57;99159.91;121717;1154;22590;-77
2021/04/06 01:38:44;;;;;;;8.88;2.78;;;;;;;1.32;63.91;99168.41;121870;1155;22563;-78
2021/04/06 01:41:16;;;;;;;6.63;2.77;;;;;;;1.33;63.99;99157.88;121905;1152;22546;-78
2021/04/06 01:43:48;;;;;;;6.08;2.88;;;;;;;1.34;63.83;99171.71;122317;1152;22543;-77
2021/04/06 01:46:21;;;;;;;9.35;2.75;;;;;;;1.34;63.89;99172.53;122348;1152;22543;-77
2021/04/06 01:48:52;;;;;;;9.35;2.73;;;;;;;1.36;63.92;99174.98;122212;1152;22541;-77
2021/04/06 01:51:23;;;;;;;6.70;2.88;;;;;;;1.36;63.98;99170.59;122279;1152;22558;-76
2021/04/06 01:53:52;;;;;;;12.90;3.73;;;;;;;1.37;63.97;99172.25;122206;1155;23472;-77
2021/04/06 01:56:31;;;;;;;9.28;3.23;;;;;;;1.37;63.75;99172.25;122130;1155;22639;-75
2021/04/06 01:59:04;;;;;;;7.80;3.20;;;;;;;1.38;63.70;99181.69;122138;1155;22569;-77
2021/04/06 02:01:35;;;;;;;7.53;3.13;;;;;;;1.36;63.83;99178.39;121799;1156;22559;-77
2021/04/06 02:04:07;;;;;;;7.63;3.08;;;;;;;1.34;63.66;99172.53;121787;1155;23982;-77
2021/04/06 02:06:40;;;;;;;9.50;3.43;;;;;;;1.33;63.87;99178.70;122243;1156;22555;-77
2021/04/06 02:09:09;;;;;;;8.08;2.98;;;;;;;1.31;63.71;99180.60;121862;1155;22550;-77
2021/04/06 02:11:41;;;;;;;8.20;3.23;;;;;;;1.30;63.75;99171.16;122280;1152;22572;-78
2021/04/06 02:14:19;;;;;;;6.58;3.00;;;;;;;1.28;63.95;99180.88;122356;1152;24952;-77
2021/04/06 02:17:03;;;;;;;8.43;2.48;;;;;;;1.27;64.14;99179.24;122385;1152;22608;-77
2021/04/06 02:19:39;;;;;;;8.00;3.28;;;;;;;1.27;63.92;99176.64;122336;1152;22534;-77
2021/04/06 02:22:17;;;;;;;8.77;2.90;;;;;;;1.29;64.55;99184.30;122297;1152;22520;-78
2021/04/06 02:24:53;;;;;;;7.70;2.53;;;;;;;1.29;63.94;99181.69;122305;1151;22553;-78
2021/04/06 02:27:35;;;;;;;7.70;2.90;;;;;;;1.25;64.10;99185.53;122327;1153;22539;-78
2021/04/06 02:30:10;;;;;;;7.03;2.43;;;;;;;1.22;63.92;99184.02;122117;1155;24182;-78
2021/04/06 02:32:38;;;;;;;11.93;3.90;;;;;;;1.21;64.00;99189.38;121644;1155;22551;-77
2021/04/06 02:35:12;;;;;;;15.78;3.58;;;;;;;1.17;63.93;99192.24;121792;1155;23130;-77
2021/04/06 02:37:49;;;;;;;8.30;3.00;;;;;;;1.13;64.09;99190.03;121762;1158;24219;-78
2021/04/06 02:40:25;;;;;;;9.93;3.30;;;;;;;1.13;64.01;99180.47;121716;1155;22584;-76
2021/04/06 02:42:57;;;;;;;7.98;3.10;;;;;;;1.15;64.24;99193.33;121678;1155;24713;-77
2021/04/06 02:45:29;;;;;;;9.43;3.25;;;;;;;1.16;64.17;99197.56;121667;1158;22615;-76
2021/04/06 02:48:06;;;;;;;12.25;3.28;;;;;;;1.16;64.13;99193.18;121429;1156;23161;-76
2021/04/06 02:50:39;;;;;;;8.35;2.63;;;;;;;1.20;64.13;99196.36;121818;1156;22620;-75
2021/04/06 02:53:10;;;;;;;9.23;3.20;;;;;;;1.20;64.02;99209.37;121849;1155;22568;-75
2021/04/06 02:55:39;;;;;;;12.10;2.88;;;;;;;1.18;64.27;99211.27;122104;1156;25192;-77
2021/04/06 02:58:16;;;;;;;9.25;3.00;;;;;;;1.18;64.20;99198.27;121825;1155;22731;-75
2021/04/06 03:00:45;;;;;;;9.70;3.33;;;;;;;1.20;64.08;99209.37;122124;1156;22630;-76
2021/04/06 03:03:26;;;;;;;9.50;3.58;;;;;;;1.20;64.52;99217.17;121764;1155;23750;-76
2021/04/06 03:06:04;;;;;;;7.68;2.85;;;;;;;1.22;64.45;99215.23;121744;1155;25179;-77
2021/04/06 03:08:35;;;;;;;8.75;2.53;;;;;;;1.22;64.24;99220.44;121733;1155;22831;-77
2021/04/06 03:11:08;;;;;;;10.80;3.50;;;;;;;1.21;64.04;99220.59;121817;1154;22673;-77
2021/04/06 03:13:42;;;;;;;9.70;3.33;;;;;;;1.17;64.08;99220.86;122106;1155;24722;-78
2021/04/06 03:16:12;;;;;;;8.43;2.88;;;;;;;1.18;63.87;99216.47;122136;1156;24476;-78
2021/04/06 03:18:42;;;;;;;10.35;3.40;;;;;;;1.20;64.25;99231.93;122089;1155;22579;-77
2021/04/06 03:21:12;;;;;;;8.18;2.90;;;;;;;1.20;64.04;99234.53;122100;1155;25190;-76
2021/04/06 03:23:41;;;;;;;14.58;4.58;;;;;;;1.20;64.21;99235.38;122197;1152;22536;-78
2021/04/06 03:26:10;;;;;;;12.98;4.40;;;;;;;1.19;64.01;99238.92;121689;1156;22562;-77
2021/04/06 03:28:40;;;;;;;15.43;5.10;;;;;;;1.22;64.21;99243.86;121252;1158;22700;-77
2021/04/06 03:31:13;;;;;;;13.30;4.27;;;;;;;1.23;64.21;99247.27;121522;1158;22604;-77
2021/04/06 03:33:45;;;;;;;14.45;5.18;;;;;;;1.24;64.15;99254.95;121561;1159;22572;-78
2021/04/06 03:36:28;;;;;;;13.98;4.28;;;;;;;1.25;64.04;99253.99;121358;1159;22586;-78
2021/04/06 03:39:09;;;;;;;11.18;5.70;;;;;;;1.19;63.89;99264.94;121675;1158;22584;-78
2021/04/06 03:41:38;;;;;;;17.10;4.08;;;;;;;1.18;63.94;99258.09;121285;1158;22569;-78
2021/04/06 03:44:10;;;;;;;13.03;3.75;;;;;;;1.17;64.12;99264.27;121426;1156;24722;-78
2021/04/06 03:46:41;;;;;;;9.08;3.85;;;;;;;1.19;63.98;99264.94;121893;1155;22622;-79
2021/04/06 03:49:18;;;;;;;11.93;5.25;;;;;;;1.20;64.26;99274.41;122161;1155;22483;-78
2021/04/06 03:52:00;;;;;;;11.10;4.83;;;;;;;1.24;64.12;99262.77;122268;1154;22552;-78
2021/04/06 03:54:33;;;;;;;11.23;5.28;;;;;;;1.25;64.03;99264.40;122220;1153;22574;-77
2021/04/06 03:57:37;;;;;;;15.33;7.13;;;;;;;1.27;63.94;99257.30;122142;1154;22552;-78
2021/04/06 04:00:13;;;;;;;10.55;4.65;;;;;;;1.25;63.73;99266.19;122554;1152;22547;-79
2021/04/06 04:02:48;;;;;;;;;;;;;;;1.20;63.67;99271.80;122540;1155;22626;-78
2021/04/06 04:05:17;;;;;;;10.95;4.85;;;;;;;1.15;63.99;99268.77;122412;1154;21367;-77
2021/04/06 04:07:47;;;;;;;9.80;3.38;;;;;;;1.12;63.71;99277.66;122557;1152;22530;-77
2021/04/06 04:10:15;;;;;;;11.98;3.48;;;;;;;1.11;63.94;99270.00;122325;1152;22632;-77
2021/04/06 04:12:44;;;;;;;12.33;3.68;;;;;;;1.08;63.86;99278.06;122260;1152;23508;-77
2021/04/06 04:15:13;;;;;;;12.13;3.55;;;;;;;1.05;63.75;99273.13;122376;1152;22593;-76
2021/04/06 04:17:50;;;;;;;11.43;4.33;;;;;;;1.01;63.87;99285.58;122230;1152;22540;-78
2021/04/06 04:20:22;;;;;;;8.60;3.78;;;;;;;1.02;63.91;99278.59;122480;1152;22724;-81
2021/04/06 04:22:52;;;;;;;12.95;4.05;;;;;;;1.04;64.07;99269.70;122699;1152;22509;-75
2021/04/06 04:25:22;;;;;;;9.55;3.03;;;;;;;1.06;64.16;99275.58;122217;1152;22524;-76
2021/04/06 04:27:52;;;;;;;11.43;3.93;;;;;;;1.05;63.86;99273.94;122240;1151;25181;-75
2021/04/06 04:30:39;;;;;;;10.88;3.33;;;;;;;1.02;63.81;99274.20;122381;1152;22548;-75
2021/04/06 04:33:10;;;;;;;7.90;3.33;;;;;;;0.99;63.81;99269.27;122357;1152;22540;-76
2021/04/06 04:35:39;;;;;;;8.03;3.13;;;;;;;0.97;63.97;99271.20;122257;1152;23004;-76
2021/04/06 04:38:09;;;;;;;12.73;3.90;;;;;;;0.95;63.91;99273.09;122266;1152;22637;-76
2021/04/06 04:40:43;;;;;;;9.05;3.30;;;;;;;0.92;64.01;99273.36;122226;1151;24426;-77
2021/04/06 04:43:14;;;;;;;10.13;4.23;;;;;;;0.93;64.08;99275.84;122348;1152;22564;-77
2021/04/06 04:45:43;;;;;;;10.28;4.93;;;;;;;0.91;63.88;99267.34;122169;1152;22538;-75
2021/04/06 04:48:11;;;;;;;11.05;4.58;;;;;;;0.90;64.12;99275.26;122388;1155;22510;-76
2021/04/06 04:50:39;;;;;;;6.98;3.30;;;;;;;0.93;64.40;99278.45;122231;1152;22543;-75
2021/04/06 04:53:09;;;;;;;10.73;3.58;;;;;;;0.97;64.39;99283.35;122253;1151;24519;-76
2021/04/06 04:55:38;;;;;;;9.08;3.38;;;;;;;0.97;64.14;99276.41;122335;1151;22544;-76
2021/04/06 04:58:06;;;;;;;14.38;4.53;;;;;;;0.98;64.11;99282.42;122217;1152;22775;-75
2021/04/06 05:00:35;;;;;;;9.68;3.58;;;;;;;0.99;63.99;99276.25;122265;1151;24684;-75
2021/04/06 05:03:05;;;;;;;12.13;4.23;;;;;;;0.97;63.79;99292.00;121831;1155;25163;-75
2021/04/06 05:05:33;;;;;;;13.25;4.68;;;;;;;0.96;64.16;99292.12;121754;1155;22631;-75
2021/04/06 05:08:02;;;;;;;11.88;3.98;;;;;;;1.08;64.60;99289.28;121829;1155;22570;-76
2021/04/06 05:10:30;;;;;;;10.93;4.53;;;;;;;1.25;64.50;99285.21;121807;1158;22619;-80
2021/04/06 05:13:00;;;;;;;11.45;4.73;;;;;;;1.32;64.01;99294.13;121670;1158;22576;-81
2021/04/06 05:15:30;;;;;;;13.48;4.85;;;;;;;1.38;64.39;99287.56;121417;1161;22603;-80
2021/04/06 05:17:59;;;;;;;13.35;4.25;;;;;;;1.44;63.87;99307.03;121442;1161;23246;-81
2021/04/06 05:20:30;;;;;;;14.60;6.30;;;;;;;1.47;63.82;99302.38;121707;1158;22518;-79
2021/04/06 05:23:01;;;;;;;14.57;5.73;;;;;;;1.45;63.26;99295.66;122283;1158;22661;-85
2021/04/06 05:25:30;;;;;;;8.60;4.10;;;;;;;1.42;63.40;99314.95;121770;1161;22593;-80
2021/04/06 05:27:58;;;;;;;16.23;8.60;;;;;;;1.43;63.50;99310.57;121720;1159;22641;-86
2021/04/06 05:30:27;;;;;;;11.95;4.50;;;;;;;1.42;63.60;99317.56;121525;1163;22595;-82
2021/04/06 05:32:56;;;;;;;11.90;5.70;;;;;;;1.45;63.56;99317.30;121162;1164;22701;-82
2021/04/06 05:35:24;;;;;;;15.90;6.15;;;;;;;1.46;63.32;99318.11;121183;1163;22594;-82
2021/04/06 05:37:53;;;;;;;11.90;5.07;;;;;;;1.46;63.56;99323.31;121189;1161;22599;-83
2021/04/06 05:40:22;;;;;;;9.37;5.00;;;;;;;1.49;63.67;99323.05;121354;1161;25168;-83
2021/04/06 05:42:50;;;;;;;10.25;5.10;;;;;;;1.53;63.88;99322.63;121557;1158;22596;-83
2021/04/06 05:45:19;;;;;;;10.30;5.23;;;;;;;1.57;63.50;99329.23;121388;1161;24719;-82
2021/04/06 05:47:52;;;;;;;17.75;6.43;;;;;;;1.61;63.60;99338.41;121324;1161;24801;-81
2021/04/06 05:50:29;;;;;;;9.98;5.03;;;;;;;1.64;63.58;99332.94;121474;1158;24163;-83
2021/04/06 05:53:01;;;;;;;8.93;4.18;;;;;;;1.66;63.30;99340.60;121778;1156;23314;-83
2021/04/06 05:55:37;;;;;;;13.50;4.90;;;;;;;1.71;63.31;99348.02;121696;1159;22683;-83
2021/04/06 05:58:06;;;;;;;9.68;4.18;;;;;;;1.73;63.23;99341.70;121219;1161;22574;-82
2021/04/06 06:00:35;;;;;;;14.68;5.53;;;;;;;1.72;62.92;99344.45;121125;1161;22608;-80
2021/04/06 06:03:05;;;;;;;10.23;4.55;;;;;;;1.67;62.64;99341.42;121412;1158;25007;-80
2021/04/06 06:05:35;;;;;;;8.78;4.68;;;;;;;1.59;62.41;99355.94;121517;1158;23336;-80
2021/04/06 06:08:09;;;;;;;8.93;4.73;;;;;;;1.54;62.45;99344.30;121552;1158;22560;-80
2021/04/06 06:10:38;;;;;;;16.27;5.30;;;;;;;1.50;62.56;99338.55;121545;1161;22517;-80
2021/04/06 06:13:26;;;;;;;13.40;6.25;;;;;;;1.50;62.54;99338.55;121191;1162;22694;-80
2021/04/06 06:16:22;;;;;;;13.20;6.53;;;;;;;1.56;62.81;99337.98;121209;1161;22667;-80
2021/04/06 06:19:10;;;;;;;14.90;6.40;;;;;;;1.56;62.26;99343.19;121320;1161;22591;-81
2021/04/06 06:21:41;;;;;;;19.70;8.40;;;;;;;1.59;62.72;99335.11;121391;1161;24841;-79
2021/04/06 06:24:33;;;;;;;11.13;6.33;;;;;;;1.65;62.66;99337.18;121372;1164;24421;-79
2021/04/06 06:27:01;;;;;;;15.45;7.95;;;;;;;1.70;62.68;99328.98;121056;1164;24812;-80
2021/04/06 06:29:43;;;;;;;16.55;6.73;;;;;;;1.73;62.33;99335.67;121051;1164;22630;-82
2021/04/06 06:32:22;;;;;;;15.33;6.40;;;;;;;1.82;62.51;99320.06;121306;1161;23049;-80
2021/04/06 06:34:52;;;;;;;12.38;5.95;;;;;;;1.91;62.42;99328.84;121345;1161;22621;-81
2021/04/06 06:37:26;;;;;;;12.07;6.17;;;;;;;2.02;62.36;99339.11;121515;1161;22891;-80
2021/04/06 06:40:04;;;;;;;13.83;6.10;;;;;;;2.11;62.20;99340.08;121374;1159;22630;-80
2021/04/06 06:42:39;;;;;;;11.15;4.80;;;;;;;2.09;61.56;99348.02;121270;1161;22636;-79
2021/04/06 06:45:29;;;;;;;12.28;5.28;;;;;;;2.05;61.38;99346.66;121174;1160;22602;-79
2021/04/06 06:47:58;;;;;;;11.30;5.50;;;;;;;2.02;61.17;99354.73;121704;1157;24396;-84
2021/04/06 06:50:27;;;;;;;9.18;4.58;;;;;;;2.01;61.09;99347.89;121977;1155;22623;-82
2021/04/06 06:52:58;;;;;;;19.08;5.73;;;;;;;2.00;61.82;99354.08;121682;1158;23358;-79
2021/04/06 06:55:27;;;;;;;11.60;5.68;;;;;;;2.02;61.44;99344.31;121744;1158;24736;-80
2021/04/06 06:58:06;;;;;;;13.68;6.03;;;;;;;2.08;61.35;99348.16;121714;1158;22604;-80
2021/04/06 07:00:35;;;;;;;24.78;15.18;;;;;;;2.16;61.38;99343.07;121377;1156;22575;-80
2021/04/06 07:03:15;;;;;;;16.85;8.38;;;;;;;2.25;61.31;99337.03;121609;1156;22868;-80
2021/04/06 07:05:43;;;;;;;13.38;6.13;;;;;;;2.32;61.21;99334.70;121589;1158;22783;-82
2021/04/06 07:08:12;;;;;;;15.68;7.63;;;;;;;2.47;61.58;99338.52;121755;1158;22585;-80
2021/04/06 07:10:43;;;;;;;13.05;5.80;;;;;;;2.69;61.37;99328.70;121794;1155;22738;-79
2021/04/06 07:13:18;;;;;;;14.35;7.15;;;;;;;2.90;61.60;99321.50;121911;1155;24703;-81
2021/04/06 07:15:51;;;;;;;16.25;10.33;;;;;;;3.25;61.58;99319.95;122513;1152;22534;-81
2021/04/06 07:18:24;;;;;;;17.45;5.65;;;;;;;3.40;60.47;99325.48;122568;1152;22542;-80
2021/04/06 07:20:55;;;;;;;12.18;4.85;;;;;;;3.39;59.49;99322.05;122537;1152;23081;-82
2021/04/06 07:23:59;;;;;;;8.13;4.55;;;;;;;3.38;59.11;99322.22;122746;1152;22552;-82
2021/04/06 07:26:29;;;;;;;10.35;5.33;;;;;;;3.35;58.86;99330.34;122435;1154;22549;-80
2021/04/06 07:28:59;;;;;;;13.28;5.78;;;;;;;3.27;58.51;99321.45;122518;1151;22532;-80
2021/04/06 07:31:27;;;;;;;13.90;5.90;;;;;;;3.18;58.53;99319.71;122348;1152;24222;-82
2021/04/06 07:33:57;;;;;;;15.60;6.63;;;;;;;3.12;58.42;99324.69;122421;1152;24684;-81
2021/04/06 07:36:26;;;;;;;7.98;5.25;;;;;;;3.04;58.32;99314.98;122175;1155;22543;-81
2021/04/06 07:39:02;;;;;;;11.25;5.75;;;;;;;2.98;58.42;99328.60;122032;1155;22902;-82
2021/04/06 07:41:35;;;;;;;14.15;5.60;;;;;;;2.90;58.28;99333.70;122066;1155;24846;-80
2021/04/06 07:44:05;;;;;;;10.43;4.35;;;;;;;2.86;58.54;99334.95;121886;1158;22589;-80
2021/04/06 07:46:33;;;;;;;12.45;6.28;;;;;;;2.87;58.67;99336.63;121699;1157;23054;-81
2021/04/06 07:49:31;;;;;;;9.55;4.25;;;;;;;2.88;58.53;99331.25;121809;1157;24761;-80
2021/04/06 07:52:03;;;;;;;18.38;6.43;;;;;;;2.82;58.63;99331.81;121839;1158;22617;-79
2021/04/06 07:54:52;;;;;;;9.73;6.23;;;;;;;2.86;58.77;99337.56;121623;1160;25173;-80
2021/04/06 07:57:20;;;;;;;14.03;6.33;;;;;;;2.89;58.85;99329.45;121566;1158;24511;-79
2021/04/06 07:59:53;;;;;;;18.75;7.68;;;;;;;2.91;58.71;99336.19;121707;1158;22640;-83
2021/04/06 08:02:27;;;;;;;11.10;4.85;;;;;;;2.91;58.67;99332.75;122241;1155;22534;-81
2021/04/06 08:04:58;;;;;;;9.53;5.50;;;;;;;2.82;58.36;99330.03;122133;1158;22565;-81
2021/04/06 08:07:28;;;;;;;14.25;6.73;;;;;;;2.74;58.25;99334.33;122047;1157;22753;-81
2021/04/06 08:10:20;;;;;;;16.48;8.13;;;;;;;2.74;58.62;99336.94;122519;1152;22541;-81
2021/04/06 08:12:49;;;;;;;;;;;;;;;2.71;58.68;99332.82;122668;1156;22586;-82
2021/04/06 08:15:21;;;;;;;13.08;6.28;;;;;;;2.71;58.90;99332.82;122570;1152;21349;-82
2021/04/06 08:17:54;;;;;;;13.10;5.73;;;;;;;2.73;58.75;99330.91;122549;1152;22604;-83
2021/04/06 08:20:36;;;;;;;14.35;6.45;;;;;;;2.73;58.71;99330.06;122572;1152;22997;-81
2021/04/06 08:23:27;;;;;;;14.68;5.30;;;;;;;2.72;58.69;99331.03;122518;1152;22543;-81
2021/04/06 08:25:56;;;;;;;13.88;5.93;;;;;;;2.69;58.74;99326.91;122715;1151;22756;-81
2021/04/06 08:28:37;;;;;;;11.28;5.73;;;;;;;2.76;58.92;99327.98;122665;1152;22525;-82
2021/04/06 08:31:19;;;;;;;10.80;5.75;;;;;;;2.81;58.87;99320.56;122531;1155;24703;-84
2021/04/06 08:34:30;;;;;;;16.75;7.08;;;;;;;2.92;59.17;99319.55;122406;1154;22567;-84
2021/04/06 08:37:07;;;;;;;15.58;6.08;;;;;;;3.01;59.02;99317.88;122321;1155;22564;-84
2021/04/06 08:39:36;;;;;;;14.10;5.43;;;;;;;3.10;58.79;99322.23;122345;1155;22588;-83
2021/04/06 08:42:08;;;;;;;14.43;6.85;;;;;;;3.19;58.84;99323.95;122005;1155;22571;-82
2021/04/06 08:44:38;;;;;;;13.97;6.13;;;;;;;3.30;58.59;99321.16;122092;1154;22655;-83
2021/04/06 08:47:07;;;;;;;11.73;5.43;;;;;;;3.41;58.51;99312.30;122308;1155;25040;-83
2021/04/06 08:49:42;;;;;;;13.03;5.93;;;;;;;3.63;58.83;99324.13;122648;1152;23746;-82
2021/04/06 08:52:13;;;;;;;14.23;5.75;;;;;;;3.84;58.48;99325.62;122669;1152;22575;-82
2021/04/06 08:54:42;;;;;;;15.83;6.07;;;;;;;3.98;57.80;99317.23;122650;1152;22548;-83
2021/04/06 08:57:10;;;;;;;15.03;7.00;;;;;;;4.09;57.52;99314.38;122572;1151;22589;-83
2021/04/06 09:00:37;;;;;;;15.10;6.65;;;;;;;4.13;56.63;99320.13;122434;1154;24774;-80
2021/04/06 09:03:39;;;;;;;11.43;5.28;;;;;;;4.38;57.10;99319.34;123603;1155;22554;-81
2021/04/06 09:06:13;;;;;;;14.43;4.48;;;;;;;4.65;56.52;99320.97;122151;1155;22708;-81
2021/04/06 09:08:55;;;;;;;7.60;3.60;;;;;;;4.78;55.46;99320.55;121930;1158;22627;-81
2021/04/06 09:11:24;;;;;;;14.20;6.08;;;;;;;4.81;55.00;99327.28;121490;1161;22640;-77
2021/04/06 09:13:54;;;;;;;15.23;5.68;;;;;;;4.90;55.04;99318.50;121561;1161;23574;-79
2021/04/06 09:16:30;;;;;;;14.77;5.53;;;;;;;5.06;54.75;99326.40;121267;1159;22667;-78
2021/04/06 09:19:15;;;;;;;8.45;4.93;;;;;;;5.18;54.39;99314.67;121394;1161;22637;-79
2021/04/06 09:21:51;;;;;;;13.93;6.15;;;;;;;5.18;53.67;99325.15;121272;1159;24573;-78
2021/04/06 09:24:45;;;;;;;17.67;8.97;;;;;;;5.13;53.30;99329.20;123874;1130;22489;31
2021/04/06 09:27:13;;;;;;;18.20;8.48;;;;;;;5.03;53.17;99318.89;122403;1149;22573;-82
2021/04/06 09:29:49;;;;;;;10.38;5.18;;;;;;;4.97;52.73;99323.93;122000;1153;22736;-80
2021/04/06 09:32:21;;;;;;;14.18;6.28;;;;;;;4.88;52.79;99310.80;122570;1155;22566;-83
2021/04/06 09:34:51;;;;;;;23.78;11.80;;;;;;;4.86;52.84;99314.53;122987;1154;22560;-81
2021/04/06 09:37:27;;;;;;;25.60;11.60;;;;;;;4.87;52.79;99313.58;122342;1154;24201;-79
2021/04/06 09:39:59;;;;;;;19.68;8.10;;;;;;;5.16;53.48;99311.41;122573;1155;22538;-82
2021/04/06 09:42:27;;;;;;;14.08;5.70;;;;;;;5.32;53.05;99312.42;122142;1155;23031;-79
2021/04/06 09:44:56;;;;;;;24.88;10.53;;;;;;;5.35;52.19;99307.69;122290;1154;22603;-77
2021/04/06 09:47:24;;;;;;;29.13;16.80;;;;;;;5.49;52.65;99311.48;122167;1153;23342;-80
2021/04/06 09:49:56;;;;;;;19.25;9.78;;;;;;;5.72;52.48;99309.07;122111;1155;22573;-80
2021/04/06 09:52:28;;;;;;;13.73;6.58;;;;;;;6.07;52.69;99305.36;122188;1153;22546;-74
2021/04/06 09:55:04;;;;;;;21.40;10.05;;;;;;;6.57;52.31;99306.94;122105;1155;22544;-73
2021/04/06 09:57:43;;;;;;;19.08;8.00;;;;;;;7.17;52.05;99305.59;122058;1155;22549;-75
2021/04/06 10:00:20;;;;;;;14.38;7.70;;;;;;;7.64;49.87;99291.53;121572;1157;24383;-73
2021/04/06 10:03:31;;;;;;;12.70;6.57;;;;;;;8.01;49.34;99298.64;121726;1155;22625;-76
2021/04/06 10:06:07;;;;;;;10.33;4.10;;;;;;;8.58;48.58;99302.59;121598;1158;22572;-79
2021/04/06 10:08:35;;;;;;;8.23;4.25;;;;;;;9.09;47.14;99296.58;121680;1158;22576;-81
2021/04/06 10:11:04;;;;;;;9.85;4.63;;;;;;;9.57;46.51;99292.48;121422;1158;22594;-80
2021/04/06 10:13:38;;;;;;;10.50;3.88;;;;;;;9.99;45.02;99284.75;121226;1161;24850;-76
2021/04/06 10:16:17;;;;;;;8.50;3.73;;;;;;;10.25;43.53;99297.35;121329;1159;22646;-77
2021/04/06 10:18:49;;;;;;;10.98;5.03;;;;;;;9.95;41.85;99289.59;121357;1158;24712;-79
2021/04/06 10:21:27;;;;;;;16.23;8.38;;;;;;;9.47;41.49;99304.34;121390;1158;22872;-79
2021/04/06 10:24:06;;;;;;;14.38;7.85;;;;;;;9.07;41.80;99299.41;121321;1158;22571;-78
2021/04/06 10:26:35;;;;;;;24.48;15.78;;;;;;;8.64;42.28;99304.52;121607;1158;22659;-78
2021/04/06 10:29:10;;;;;;;23.05;14.48;;;;;;;8.62;42.55;99306.49;121694;1155;24792;-78
2021/04/06 10:31:53;;;;;;;16.83;9.38;;;;;;;8.37;42.31;99307.72;121872;1155;22547;-77
2021/04/06 10:34:23;;;;;;;18.75;9.23;;;;;;;8.25;42.71;99310.77;122254;1155;22652;-77
2021/04/06 10:37:09;;;;;;;12.60;6.25;;;;;;;8.04;42.30;99310.63;122173;1155;22854;-77
2021/04/06 10:39:43;;;;;;;8.00;4.38;;;;;;;7.69;42.54;99298.88;122178;1154;24708;-79
2021/04/06 10:42:15;;;;;;;10.25;4.50;;;;;;;7.43;42.71;99302.67;122137;1155;24409;-77
2021/04/06 10:44:49;;;;;;;10.83;4.53;;;;;;;7.35;43.66;99300.08;122208;1153;22573;-77
2021/04/06 10:47:25;;;;;;;12.28;5.40;;;;;;;7.58;43.76;99297.48;121846;1156;25192;-77
2021/04/06 10:49:58;;;;;;;9.95;4.48;;;;;;;7.43;43.08;99301.83;122165;1153;23575;-77
2021/04/06 10:52:32;;;;;;;11.25;3.93;;;;;;;7.24;43.09;99308.35;122127;1155;24399;-77
2021/04/06 10:55:04;;;;;;;11.65;3.98;;;;;;;7.22;43.82;99298.00;122128;1155;23170;-78
2021/04/06 10:57:39;;;;;;;9.20;4.15;;;;;;;7.24;43.21;99296.03;122164;1152;22543;-78
2021/04/06 11:00:25;;;;;;;12.30;5.43;;;;;;;7.04;42.71;99303.52;121707;1158;22628;-77
2021/04/06 11:03:19;;;;;;;10.70;4.63;;;;;;;6.70;42.88;99305.61;121632;1158;22556;-78
2021/04/06 11:05:49;;;;;;;10.43;4.93;;;;;;;6.48;43.03;99307.94;121613;1156;25953;-77
2021/04/06 11:08:24;;;;;;;12.25;5.00;;;;;;;6.40;43.44;99304.49;121666;1156;22552;-77
2021/04/06 11:11:14;;;;;;;20.52;8.60;;;;;;;6.38;43.76;99304.67;121646;1156;24479;-77
2021/04/06 11:13:43;;;;;;;10.60;6.00;;;;;;;6.28;43.76;99309.28;121779;1156;22621;-79
2021/04/06 11:16:12;;;;;;;16.90;8.30;;;;;;;6.14;43.58;99305.53;121619;1158;22573;-79
2021/04/06 11:18:41;;;;;;;10.23;5.53;;;;;;;6.02;44.02;99306.83;121724;1158;22568;-78
2021/04/06 11:21:11;;;;;;;8.55;3.80;;;;;;;5.95;44.14;99304.05;121622;1156;22640;-78
2021/04/06 11:23:39;;;;;;;16.53;6.65;;;;;;;5.92;44.51;99308.77;121890;1158;22598;-78
2021/04/06 11:26:11;;;;;;;10.88;4.15;;;;;;;5.94;44.55;99312.09;122233;1153;22569;-79
2021/04/06 11:28:40;;;;;;;;;;;;;;;5.86;43.91;99311.07;122140;1158;22546;-81
2021/04/06 11:31:14;;;;;;;9.33;3.50;;;;;;;5.79;44.21;99307.44;122229;1155;21431;-79
2021/04/06 11:33:42;;;;;;;8.90;5.00;;;;;;;5.82;44.54;99319.40;121690;1158;22565;-79
2021/04/06 11:36:13;;;;;;;10.98;4.90;;;;;;;5.83;44.18;99306.16;121727;1158;22622;-78
2021/04/06 11:38:43;;;;;;;12.15;5.20;;;;;;;5.76;43.84;99309.56;121708;1156;22603;-80
2021/04/06 11:41:23;;;;;;;10.48;4.63;;;;;;;5.76;44.04;99322.66;121668;1158;22579;-79
2021/04/06 11:43:56;;;;;;;10.05;4.83;;;;;;;5.80;44.27;99313.52;121788;1156;22682;-80
2021/04/06 11:46:28;;;;;;;7.95;3.93;;;;;;;5.83;44.06;99310.55;121384;1158;22607;-79
2021/04/06 11:48:56;;;;;;;8.53;4.00;;;;;;;5.84;44.17;99306.97;121350;1158;22621;-79
2021/04/06 11:51:26;;;;;;;7.73;4.30;;;;;;;5.82;44.09;99309.73;121321;1157;22563;-80
2021/04/06 11:53:55;;;;;;;10.28;4.93;;;;;;;5.89;44.26;99308.09;121545;1159;22585;-77
2021/04/06 11:56:23;;;;;;;6.95;3.38;;;;;;;5.87;43.77;99311.88;121335;1159;22713;-78
2021/04/06 11:58:52;;;;;;;10.50;4.17;;;;;;;5.85;43.54;99309.41;121257;1161;22630;-79
2021/04/06 12:01:29;;;;;;;8.93;4.28;;;;;;;5.84;43.70;99313.02;121339;1159;22637;-78